Time;durP1;ratioP1;P1;durP2;ratioP2;P2;SDS_P1;SDS_P2;PMS_P1;PMS_P2;Temp;Humidity;BMP_temperature;BMP_pressure;BME280_temperature;BME280_humidity;BME280_pressure;Samples;Min_cycle;Max_cycle;Signal;HPM_P1;HPM_P2
2021/09/10 00:01:29;;;;;;;11.20;10.10;;;20.50;99.90;;;;;;5119832;28;20183;-37
2021/09/10 00:03:54;;;;;;;10.30;9.30;;;20.50;99.90;;;;;;5118598;28;20599;-38
2021/09/10 00:06:20;;;;;;;9.80;8.80;;;20.50;99.90;;;;;;5125332;28;20186;-38
2021/09/10 00:08:46;;;;;;;10.60;9.60;;;20.50;99.90;;;;;;5125905;28;20211;-37
2021/09/10 00:11:11;;;;;;;11.67;10.57;;;20.50;99.90;;;;;;5125876;28;20198;-38
2021/09/10 00:13:37;;;;;;;10.70;9.73;;;20.50;99.90;;;;;;5125830;28;20175;-37
2021/09/10 00:16:03;;;;;;;12.30;10.13;;;20.50;99.90;;;;;;5107020;28;20193;-37
2021/09/10 00:18:29;;;;;;;11.93;10.73;;;20.50;99.90;;;;;;5116826;28;20241;-37
2021/09/10 00:20:55;;;;;;;11.57;9.57;;;20.50;99.90;;;;;;5108582;27;20471;-37
2021/09/10 00:23:20;;;;;;;14.60;10.30;;;20.50;99.90;;;;;;5129254;27;20421;-38
2021/09/10 00:25:46;;;;;;;11.33;9.20;;;20.50;99.90;;;;;;5129758;27;20194;-37
2021/09/10 00:28:12;;;;;;;11.33;10.33;;;20.40;99.90;;;;;;5129629;27;20498;-37
2021/09/10 00:30:37;;;;;;;13.67;11.20;;;20.40;99.90;;;;;;5110623;27;20548;-37
2021/09/10 00:33:03;;;;;;;15.40;10.33;;;20.40;99.90;;;;;;5115892;27;20244;-38
2021/09/10 00:35:28;;;;;;;10.97;9.97;;;20.40;99.90;;;;;;5124491;27;20172;-37
2021/09/10 00:37:54;;;;;;;11.97;10.80;;;20.40;99.90;;;;;;5108739;28;20184;-37
2021/09/10 00:40:20;;;;;;;11.80;10.70;;;20.50;99.90;;;;;;5118854;27;20191;-38
2021/09/10 00:42:45;;;;;;;12.13;10.93;;;20.50;99.90;;;;;;5129376;27;20543;-37
2021/09/10 00:45:11;;;;;;;11.23;10.10;;;20.50;99.90;;;;;;5129394;27;20187;-37
2021/09/10 00:47:39;;;;;;;12.13;10.87;;;20.40;99.90;;;;;;5118607;27;20250;-37
2021/09/10 00:50:05;;;;;;;10.97;9.97;;;20.40;99.90;;;;;;5125038;27;20670;-37
2021/09/10 00:52:31;;;;;;;16.57;10.70;;;20.40;99.90;;;;;;5128818;27;20427;-37
2021/09/10 00:54:58;;;;;;;13.57;11.40;;;20.40;99.90;;;;;;5129037;27;20417;-37
2021/09/10 00:57:24;;;;;;;14.20;9.77;;;20.40;99.90;;;;;;5128818;27;20585;-37
2021/09/10 00:59:49;;;;;;;12.20;11.00;;;20.40;99.90;;;;;;5128688;27;20420;-37
2021/09/10 01:02:15;;;;;;;12.43;11.00;;;20.40;99.90;;;;;;5121099;27;20655;-37
2021/09/10 01:04:41;;;;;;;11.10;10.00;;;20.40;99.90;;;;;;5127427;27;20553;-37
2021/09/10 01:07:07;;;;;;;10.63;9.53;;;20.40;99.90;;;;;;5128607;27;20194;-37
2021/09/10 01:09:35;;;;;;;11.90;10.80;;;20.40;99.90;;;;;;5128632;27;20932;-37
2021/09/10 01:12:01;;;;;;;11.83;9.97;;;20.40;99.90;;;;;;5128813;27;20508;-38
2021/09/10 01:14:27;;;;;;;12.63;10.40;;;20.40;99.90;;;;;;5123927;27;20545;-37
2021/09/10 01:16:53;;;;;;;11.67;10.67;;;20.40;99.90;;;;;;5107348;27;20278;-38
2021/09/10 01:19:30;;;;;;;12.40;11.10;;;20.40;99.90;;;;;;5126334;27;20507;-37
2021/09/10 01:22:00;;;;;;;11.93;10.57;;;20.40;99.90;;;;;;5122423;27;20190;-37
2021/09/10 01:24:50;;;;;;;11.60;10.40;;;20.40;99.90;;;;;;5128513;27;20420;-39
2021/09/10 01:27:16;;;;;;;10.87;9.77;;;20.50;99.90;;;;;;5126555;27;20428;-37
2021/09/10 01:29:41;;;;;;;11.20;10.10;;;20.40;99.90;;;;;;5127749;27;20468;-37
2021/09/10 01:32:10;;;;;;;10.97;9.87;;;20.40;99.90;;;;;;5123612;27;20179;-37
2021/09/10 01:34:35;;;;;;;9.63;8.73;;;20.40;99.90;;;;;;5127981;27;20281;-37
2021/09/10 01:37:01;;;;;;;10.37;9.40;;;20.40;99.90;;;;;;5124935;27;20564;-37
2021/09/10 01:39:27;;;;;;;11.30;10.00;;;20.40;99.90;;;;;;5128036;27;20199;-37
2021/09/10 01:41:52;;;;;;;10.70;9.70;;;20.40;99.90;;;;;;5127468;27;20282;-37
2021/09/10 01:44:18;;;;;;;9.80;8.80;;;20.40;99.90;;;;;;5110119;27;20183;-37
2021/09/10 01:46:43;;;;;;;9.50;8.60;;;20.40;99.90;;;;;;5125411;27;20198;-37
2021/09/10 01:49:09;;;;;;;10.60;9.60;;;20.40;99.90;;;;;;5122360;27;20232;-37
2021/09/10 01:51:35;;;;;;;10.20;9.30;;;20.40;99.90;;;;;;5120231;27;20191;-37
2021/09/10 01:54:01;;;;;;;10.03;9.10;;;20.40;99.90;;;;;;5109616;27;20239;-37
2021/09/10 01:56:27;;;;;;;13.03;9.00;;;20.40;99.90;;;;;;5127392;27;20553;-37
2021/09/10 01:58:53;;;;;;;10.30;9.30;;;20.40;99.90;;;;;;5128200;27;20416;-38
2021/09/10 02:01:27;;;;;;;9.90;8.30;;;20.40;99.90;;;;;;5126430;27;20437;-39
2021/09/10 02:03:53;;;;;;;9.60;8.80;;;20.40;99.90;;;;;;5119708;27;20463;-38
2021/09/10 02:06:19;;;;;;;9.60;8.70;;;20.40;99.90;;;;;;5127182;27;20783;-37
2021/09/10 02:08:45;;;;;;;10.10;9.10;;;20.40;99.90;;;;;;5127668;27;20211;-37
2021/09/10 02:11:11;;;;;;;10.13;9.33;;;20.30;99.90;;;;;;5127106;27;20486;-37
2021/09/10 02:13:37;;;;;;;11.10;10.00;;;20.30;99.90;;;;;;5127315;27;20899;-37
2021/09/10 02:16:03;;;;;;;10.30;9.33;;;20.40;99.90;;;;;;5108721;27;20195;-37
2021/09/10 02:18:29;;;;;;;10.33;9.17;;;20.30;99.90;;;;;;5117108;27;20270;-38
2021/09/10 02:20:54;;;;;;;13.60;9.13;;;20.30;99.90;;;;;;5121677;27;20523;-37
2021/09/10 02:23:20;;;;;;;11.63;9.80;;;20.30;99.90;;;;;;5126849;27;20203;-37
2021/09/10 02:25:45;;;;;;;9.90;8.93;;;20.30;99.90;;;;;;5126855;27;20195;-37
2021/09/10 02:28:11;;;;;;;12.20;10.37;;;20.30;99.90;;;;;;5127457;27;20967;-37
2021/09/10 02:30:37;;;;;;;9.50;8.50;;;20.30;99.90;;;;;;5127092;27;20240;-37
2021/09/10 02:33:02;;;;;;;11.33;9.60;;;20.20;99.90;;;;;;5119523;27;20187;-37
2021/09/10 02:35:28;;;;;;;10.33;9.33;;;20.20;99.90;;;;;;5125243;27;20190;-38
2021/09/10 02:37:54;;;;;;;10.83;9.73;;;20.20;99.90;;;;;;5126566;27;20404;-38
2021/09/10 02:40:21;;;;;;;10.40;9.50;;;20.20;99.90;;;;;;5126654;27;20190;-37
2021/09/10 02:42:47;;;;;;;11.13;9.30;;;20.20;99.90;;;;;;5126724;27;20610;-37
2021/09/10 02:45:13;;;;;;;10.17;9.17;;;20.20;99.90;;;;;;5108074;27;20512;-37
2021/09/10 02:47:38;;;;;;;11.37;10.10;;;20.20;99.90;;;;;;5117817;27;20529;-37
2021/09/10 02:50:05;;;;;;;10.77;9.53;;;20.20;99.90;;;;;;5124539;27;20904;-38
2021/09/10 02:52:36;;;;;;;10.40;9.50;;;20.20;99.90;;;;;;5126324;27;20248;-37
2021/09/10 02:55:07;;;;;;;9.37;8.47;;;20.20;99.90;;;;;;5126528;27;20428;-37
2021/09/10 02:57:33;;;;;;;11.50;10.40;;;20.20;99.90;;;;;;5126716;27;20420;-37
2021/09/10 02:59:59;;;;;;;10.13;9.13;;;20.10;99.90;;;;;;5126610;27;20529;-37
2021/09/10 03:02:25;;;;;;;10.37;9.30;;;20.10;99.90;;;;;;5119084;27;20430;-39
2021/09/10 03:04:50;;;;;;;9.57;8.50;;;20.10;99.90;;;;;;5120163;27;20203;-39
2021/09/10 03:07:16;;;;;;;10.17;9.27;;;20.10;99.90;;;;;;5125752;27;20618;-37
2021/09/10 03:09:42;;;;;;;9.23;8.10;;;20.10;99.90;;;;;;5126528;27;20218;-37
2021/09/10 03:12:08;;;;;;;9.67;8.77;;;20.10;99.90;;;;;;5126319;27;20212;-37
2021/09/10 03:14:34;;;;;;;10.70;8.80;;;20.10;99.90;;;;;;5120994;28;20176;-38
2021/09/10 03:16:59;;;;;;;9.30;8.50;;;20.10;99.90;;;;;;5104378;28;20422;-40
2021/09/10 03:19:26;;;;;;;10.23;9.13;;;20.10;99.90;;;;;;5118051;28;20258;-37
2021/09/10 03:21:51;;;;;;;10.10;9.20;;;20.10;99.90;;;;;;5126183;28;20183;-38
2021/09/10 03:24:18;;;;;;;9.20;8.40;;;20.10;99.90;;;;;;5126148;28;20785;-37
2021/09/10 03:26:44;;;;;;;9.77;8.57;;;20.00;99.90;;;;;;5126239;28;20191;-37
2021/09/10 03:29:11;;;;;;;9.67;8.87;;;20.00;99.90;;;;;;5126178;28;20573;-38
2021/09/10 03:31:37;;;;;;;9.33;8.30;;;19.90;99.90;;;;;;5125937;28;20594;-38
2021/09/10 03:34:03;;;;;;;9.33;8.43;;;20.00;99.90;;;;;;5116791;28;20424;-37
2021/09/10 03:36:28;;;;;;;9.50;8.70;;;19.90;99.90;;;;;;5125865;28;20210;-38
2021/09/10 03:38:54;;;;;;;9.90;8.93;;;19.90;99.90;;;;;;5126236;28;20198;-38
2021/09/10 03:41:20;;;;;;;9.33;8.43;;;19.80;99.90;;;;;;5126543;28;20191;-38
2021/09/10 03:43:49;;;;;;;9.37;8.47;;;19.80;99.90;;;;;;5125944;28;20187;-37
2021/09/10 03:46:15;;;;;;;10.30;9.30;;;19.80;99.90;;;;;;5126017;28;20636;-37
2021/09/10 03:48:41;;;;;;;9.70;8.80;;;19.70;99.90;;;;;;5116274;28;20466;-37
2021/09/10 03:51:06;;;;;;;9.83;8.60;;;19.80;99.90;;;;;;5125952;28;20215;-38
2021/09/10 03:53:32;;;;;;;9.50;8.60;;;19.70;99.90;;;;;;5125905;28;20688;-38
2021/09/10 03:55:58;;;;;;;9.33;8.53;;;19.70;99.90;;;;;;5127087;27;20274;-37
2021/09/10 03:58:23;;;;;;;10.23;9.30;;;19.70;99.90;;;;;;5130441;27;20701;-37
2021/09/10 04:00:49;;;;;;;9.90;9.10;;;19.70;99.90;;;;;;5130162;27;20677;-38
2021/09/10 04:03:15;;;;;;;9.40;8.50;;;19.60;99.90;;;;;;5121731;27;20531;-37
2021/09/10 04:05:40;;;;;;;9.57;8.67;;;19.70;99.90;;;;;;5128690;27;20771;-38
2021/09/10 04:08:06;;;;;;;9.47;8.57;;;19.70;99.90;;;;;;5124158;27;20238;-37
2021/09/10 04:10:32;;;;;;;9.70;8.80;;;19.70;99.90;;;;;;5130124;27;20700;-37
2021/09/10 04:12:57;;;;;;;9.40;8.60;;;19.60;99.90;;;;;;5129497;27;20553;-37
2021/09/10 04:15:23;;;;;;;11.17;9.10;;;19.60;99.90;;;;;;5117293;27;20207;-37
2021/09/10 04:17:49;;;;;;;10.10;9.20;;;19.60;99.90;;;;;;5108683;27;20526;-37
2021/09/10 04:20:14;;;;;;;9.23;8.43;;;19.50;99.90;;;;;;5124595;27;20183;-37
2021/09/10 04:22:41;;;;;;;9.60;8.77;;;19.50;99.90;;;;;;5129001;27;20194;-37
2021/09/10 04:25:07;;;;;;;8.70;7.90;;;19.50;99.90;;;;;;5130061;27;20191;-37
2021/09/10 04:27:33;;;;;;;9.00;8.20;;;19.60;99.90;;;;;;5129295;27;20541;-37
2021/09/10 04:29:58;;;;;;;9.70;8.87;;;19.50;99.90;;;;;;5129400;27;20456;-37
2021/09/10 04:32:24;;;;;;;9.70;8.70;;;19.60;99.90;;;;;;5128233;27;20183;-38
2021/09/10 04:34:51;;;;;;;9.80;8.90;;;19.60;99.90;;;;;;5112925;27;20183;-37
2021/09/10 04:37:17;;;;;;;10.53;9.50;;;19.50;99.90;;;;;;5128800;27;20751;-37
2021/09/10 04:39:42;;;;;;;9.50;8.50;;;19.60;99.90;;;;;;5129823;27;20424;-37
2021/09/10 04:42:09;;;;;;;10.73;9.70;;;19.50;99.90;;;;;;5128745;27;20294;-37
2021/09/10 04:44:34;;;;;;;10.07;9.07;;;19.50;99.90;;;;;;5129142;27;20183;-37
2021/09/10 04:47:00;;;;;;;9.27;8.33;;;19.50;99.90;;;;;;5128804;27;20950;-37
2021/09/10 04:49:26;;;;;;;11.63;9.00;;;19.50;99.90;;;;;;5112658;27;20208;-38
2021/09/10 04:51:52;;;;;;;11.07;9.27;;;19.50;99.90;;;;;;5128750;27;20478;-38
2021/09/10 04:54:17;;;;;;;10.27;9.23;;;19.50;99.90;;;;;;5128881;27;20746;-37
2021/09/10 04:56:45;;;;;;;10.53;9.53;;;19.40;99.90;;;;;;5128746;27;20232;-37
2021/09/10 04:59:11;;;;;;;10.13;9.17;;;19.50;99.90;;;;;;5129069;27;20187;-37
2021/09/10 05:01:36;;;;;;;11.30;10.10;;;19.50;99.90;;;;;;5128512;27;20425;-37
2021/09/10 05:04:02;;;;;;;10.13;9.10;;;19.40;99.90;;;;;;5117029;27;20433;-38
2021/09/10 05:06:28;;;;;;;10.10;8.90;;;19.40;99.90;;;;;;5126855;27;20365;-37
2021/09/10 05:08:54;;;;;;;14.17;10.20;;;19.50;99.90;;;;;;5128441;27;20218;-37
2021/09/10 05:11:20;;;;;;;11.27;10.27;;;19.50;99.90;;;;;;5129044;27;20452;-37
2021/09/10 05:13:46;;;;;;;10.70;9.80;;;19.40;99.90;;;;;;5128702;27;20445;-38
2021/09/10 05:16:11;;;;;;;9.83;8.93;;;19.40;99.90;;;;;;5109323;27;20191;-37
2021/09/10 05:18:37;;;;;;;11.60;10.40;;;19.40;99.90;;;;;;5108108;27;20183;-37
2021/09/10 05:21:02;;;;;;;11.33;9.80;;;19.40;99.90;;;;;;5127814;27;20210;-39
2021/09/10 05:23:28;;;;;;;10.40;9.40;;;19.40;99.90;;;;;;5109817;27;20633;-38
2021/09/10 05:25:54;;;;;;;10.83;9.83;;;19.40;99.90;;;;;;5128542;27;20195;-37
2021/09/10 05:28:20;;;;;;;10.73;9.80;;;19.40;99.90;;;;;;5128735;27;20246;-37
2021/09/10 05:30:45;;;;;;;11.70;10.50;;;19.40;99.90;;;;;;5128687;27;20350;-38
2021/09/10 05:33:11;;;;;;;12.17;10.97;;;19.30;99.90;;;;;;5123309;27;20194;-37
2021/09/10 05:35:36;;;;;;;11.23;10.20;;;19.40;99.90;;;;;;5121668;27;20209;-37
2021/09/10 05:38:02;;;;;;;11.70;10.50;;;19.40;99.90;;;;;;5124859;27;20205;-37
2021/09/10 05:40:28;;;;;;;11.93;10.20;;;19.40;99.90;;;;;;5128159;27;20259;-37
2021/09/10 05:42:53;;;;;;;11.77;10.60;;;19.40;99.90;;;;;;5127859;27;20660;-37
2021/09/10 05:45:19;;;;;;;11.00;10.00;;;19.50;99.90;;;;;;5127669;27;20225;-37
2021/09/10 05:47:45;;;;;;;10.80;9.80;;;19.50;99.90;;;;;;5127748;27;20222;-37
2021/09/10 05:50:10;;;;;;;11.50;10.50;;;19.50;99.90;;;;;;5118884;27;20231;-37
2021/09/10 05:52:36;;;;;;;11.90;10.70;;;19.40;99.90;;;;;;5127505;27;20239;-37
2021/09/10 05:55:02;;;;;;;12.50;11.20;;;19.40;99.90;;;;;;5127857;27;20218;-37
2021/09/10 05:57:28;;;;;;;12.13;11.03;;;19.40;99.90;;;;;;5127818;27;20344;-37
2021/09/10 05:59:54;;;;;;;10.87;9.87;;;19.40;99.90;;;;;;5127654;27;21030;-37
2021/09/10 06:02:21;;;;;;;12.03;10.93;;;19.50;99.90;;;;;;5127638;27;20243;-37
2021/09/10 06:04:47;;;;;;;11.30;10.37;;;19.50;99.90;;;;;;5117103;27;20546;-37
2021/09/10 06:07:12;;;;;;;12.57;10.00;;;19.40;99.90;;;;;;5108646;27;20444;-38
2021/09/10 06:09:38;;;;;;;11.77;10.47;;;19.40;99.90;;;;;;5127441;27;20211;-38
2021/09/10 06:12:05;;;;;;;12.27;11.07;;;19.40;99.90;;;;;;5126974;27;20206;-37
2021/09/10 06:14:31;;;;;;;11.33;10.20;;;19.40;99.90;;;;;;5122384;27;20215;-37
2021/09/10 06:16:57;;;;;;;12.73;11.53;;;19.40;99.90;;;;;;5105377;28;20472;-37
2021/09/10 06:19:23;;;;;;;11.20;10.20;;;19.40;99.90;;;;;;5109258;27;20440;-37
2021/09/10 06:21:48;;;;;;;12.83;11.53;;;19.50;99.90;;;;;;5126609;27;20780;-37
2021/09/10 06:24:14;;;;;;;12.00;10.90;;;19.50;99.90;;;;;;5108589;27;20194;-37
2021/09/10 06:26:40;;;;;;;12.33;10.80;;;19.50;99.90;;;;;;5091480;27;20202;-37
2021/09/10 06:29:05;;;;;;;10.93;9.93;;;19.50;99.90;;;;;;5127043;27;20562;-37
2021/09/10 06:31:31;;;;;;;11.43;10.43;;;19.60;99.90;;;;;;5126983;27;20230;-38
2021/09/10 06:33:57;;;;;;;13.63;11.47;;;19.60;99.90;;;;;;5122653;27;20174;-37
2021/09/10 06:36:22;;;;;;;12.40;10.57;;;19.70;99.90;;;;;;5123263;27;20228;-37
2021/09/10 06:38:48;;;;;;;12.10;10.90;;;19.70;99.90;;;;;;5120064;27;20286;-37
2021/09/10 06:41:14;;;;;;;11.67;10.57;;;19.60;99.90;;;;;;5127127;27;20613;-37
2021/09/10 06:43:40;;;;;;;10.87;9.87;;;19.60;99.90;;;;;;5126828;27;20628;-37
2021/09/10 06:46:06;;;;;;;11.30;10.30;;;19.70;99.90;;;;;;5126723;27;20424;-37
2021/09/10 06:48:32;;;;;;;11.77;10.67;;;19.70;99.90;;;;;;5124546;27;20186;-37
2021/09/10 06:50:58;;;;;;;10.50;9.50;;;19.80;99.90;;;;;;5119392;27;20478;-37
2021/09/10 06:53:24;;;;;;;12.13;10.93;;;19.80;99.90;;;;;;5107774;27;20183;-37
2021/09/10 06:55:50;;;;;;;10.37;9.30;;;19.80;99.90;;;;;;5126557;27;20421;-37
2021/09/10 06:58:15;;;;;;;10.10;9.13;;;19.90;99.90;;;;;;5108162;27;20190;-38
2021/09/10 07:00:41;;;;;;;10.20;9.27;;;20.00;99.90;;;;;;5126974;27;20840;-37
2021/09/10 07:03:07;;;;;;;10.47;9.20;;;20.00;99.90;;;;;;5108070;28;20286;-37
2021/09/10 07:05:32;;;;;;;9.93;9.00;;;20.10;99.90;;;;;;5117635;27;20528;-37
2021/09/10 07:07:59;;;;;;;10.83;9.70;;;20.10;99.90;;;;;;5103518;28;20231;-37
2021/09/10 07:10:24;;;;;;;9.80;8.97;;;20.10;99.90;;;;;;5087916;28;20208;-38
2021/09/10 07:12:51;;;;;;;9.90;9.00;;;20.10;99.90;;;;;;5119777;27;20555;-38
2021/09/10 07:15:16;;;;;;;10.33;9.33;;;20.20;99.90;;;;;;5105611;28;20680;-37
2021/09/10 07:17:42;;;;;;;9.93;9.00;;;20.20;99.90;;;;;;5103923;28;20825;-37
2021/09/10 07:20:08;;;;;;;9.07;8.27;;;20.20;99.90;;;;;;5106907;28;20532;-37
2021/09/10 07:22:34;;;;;;;9.27;8.37;;;20.30;99.90;;;;;;5123782;28;20258;-37
2021/09/10 07:25:00;;;;;;;8.63;7.83;;;20.40;99.90;;;;;;5126507;28;20515;-39
2021/09/10 07:27:25;;;;;;;9.00;8.20;;;20.50;99.90;;;;;;5126579;28;20191;-37
2021/09/10 07:29:51;;;;;;;7.33;6.60;;;20.70;99.90;;;;;;5127272;27;20206;-37
2021/09/10 07:32:17;;;;;;;8.77;7.60;;;20.80;99.90;;;;;;5130564;27;20270;-37
2021/09/10 07:34:42;;;;;;;8.80;8.00;;;20.90;99.90;;;;;;5123286;27;20871;-37
2021/09/10 07:37:08;;;;;;;7.50;6.87;;;21.00;99.90;;;;;;5130061;27;20179;-37
2021/09/10 07:39:34;;;;;;;7.83;7.03;;;21.10;99.90;;;;;;5130549;27;20660;-38
2021/09/10 07:41:59;;;;;;;11.37;7.20;;;21.20;99.90;;;;;;5130043;27;20190;-37
2021/09/10 07:44:25;;;;;;;7.40;6.80;;;21.30;99.90;;;;;;5130731;27;20183;-37
2021/09/10 07:46:52;;;;;;;7.50;6.70;;;21.40;99.90;;;;;;5130013;27;20194;-38
2021/09/10 07:49:21;;;;;;;6.33;5.73;;;21.50;99.90;;;;;;5125883;27;20207;-37
2021/09/10 07:51:47;;;;;;;8.00;7.27;;;21.50;99.90;;;;;;5124681;27;20918;-38
2021/09/10 07:54:13;;;;;;;8.73;6.67;;;21.50;99.90;;;;;;5109332;27;20819;-37
2021/09/10 07:56:39;;;;;;;8.10;7.33;;;21.60;99.90;;;;;;5130010;27;20416;-37
2021/09/10 07:59:05;;;;;;;6.80;6.03;;;21.60;99.90;;;;;;5129870;27;20179;-36
2021/09/10 08:01:30;;;;;;;6.50;5.90;;;21.60;99.90;;;;;;5130120;27;20187;-37
2021/09/10 08:03:56;;;;;;;6.50;5.90;;;21.70;99.90;;;;;;5129579;27;20555;-37
2021/09/10 08:06:21;;;;;;;8.17;6.23;;;21.70;99.90;;;;;;5119109;27;20194;-37
2021/09/10 08:08:47;;;;;;;6.40;5.90;;;21.80;99.90;;;;;;5129695;27;20244;-37
2021/09/10 08:11:13;;;;;;;6.97;6.27;;;21.80;99.90;;;;;;5111541;27;20723;-37
2021/09/10 08:13:39;;;;;;;5.87;5.37;;;21.80;99.90;;;;;;5129178;27;20186;-37
2021/09/10 08:16:05;;;;;;;6.27;5.67;;;21.90;99.90;;;;;;5109910;27;20241;-37
2021/09/10 08:18:30;;;;;;;5.83;5.23;;;22.00;99.90;;;;;;5107668;28;20180;-37
2021/09/10 08:20:57;;;;;;;5.67;4.83;;;22.00;99.90;;;;;;5116262;27;20523;-37
2021/09/10 08:23:24;;;;;;;5.07;4.67;;;22.00;99.90;;;;;;5129046;27;20187;-37
2021/09/10 08:25:50;;;;;;;5.10;4.57;;;22.10;99.90;;;;;;5129518;27;20420;-37
2021/09/10 08:28:16;;;;;;;5.27;4.77;;;22.10;99.90;;;;;;5129096;27;20413;-37
2021/09/10 08:30:43;;;;;;;5.27;4.50;;;22.20;99.90;;;;;;5129534;27;20467;-38
2021/09/10 08:33:13;;;;;;;5.03;4.60;;;22.30;99.90;;;;;;5129018;27;20179;-37
2021/09/10 08:35:39;;;;;;;8.07;5.50;;;22.30;99.90;;;;;;5121790;27;20425;-37
2021/09/10 08:38:05;;;;;;;6.30;4.90;;;22.30;99.90;;;;;;5129268;27;20556;-37
2021/09/10 08:40:33;;;;;;;8.80;4.93;;;22.30;99.90;;;;;;5129211;27;20427;-37
2021/09/10 08:42:59;;;;;;;5.97;5.37;;;22.30;99.90;;;;;;5128448;27;20425;-36
2021/09/10 08:45:27;;;;;;;5.53;5.03;;;22.30;99.90;;;;;;5129024;27;20941;-37
2021/09/10 08:47:53;;;;;;;5.97;5.10;;;22.30;99.90;;;;;;5110601;27;20420;-37
2021/09/10 08:50:19;;;;;;;5.37;4.87;;;22.30;99.90;;;;;;5121446;27;20571;-37
2021/09/10 08:52:44;;;;;;;5.93;5.27;;;22.40;99.90;;;;;;5109505;27;20420;-37
2021/09/10 08:55:11;;;;;;;5.50;4.93;;;22.40;99.90;;;;;;5123044;27;20766;-37
2021/09/10 08:57:48;;;;;;;5.80;4.73;;;22.50;99.90;;;;;;5128705;27;20645;-37
2021/09/10 09:00:15;;;;;;;4.70;4.37;;;22.60;99.90;;;;;;5129088;27;20519;-36
2021/09/10 09:02:41;;;;;;;5.50;4.87;;;22.60;99.90;;;;;;5129060;27;20427;-38
2021/09/10 09:05:07;;;;;;;5.43;4.70;;;22.70;99.90;;;;;;5121890;27;20425;-37
2021/09/10 09:07:33;;;;;;;5.13;4.73;;;22.70;99.90;;;;;;5125844;27;20214;-37
2021/09/10 09:10:00;;;;;;;5.00;4.50;;;22.80;99.90;;;;;;5128362;27;20448;-37
2021/09/10 09:12:31;;;;;;;5.20;4.70;;;22.80;99.90;;;;;;5110137;27;20179;-37
2021/09/10 09:15:05;;;;;;;5.13;4.43;;;22.90;99.90;;;;;;5118954;27;20943;-37
2021/09/10 09:17:36;;;;;;;4.23;3.87;;;22.90;99.90;;;;;;5106511;28;20440;-37
2021/09/10 09:20:14;;;;;;;5.07;4.50;;;23.00;99.90;;;;;;5107339;28;20482;-37
2021/09/10 09:23:12;;;;;;;4.67;4.27;;;23.00;99.90;;;;;;5120263;27;20452;-37
2021/09/10 09:25:49;;;;;;;5.70;4.47;;;23.00;99.90;;;;;;5126176;27;20885;-37
2021/09/10 09:28:21;;;;;;;6.43;4.80;;;23.00;99.90;;;;;;5128758;27;20420;-37
2021/09/10 09:30:50;;;;;;;4.53;4.13;;;23.20;99.90;;;;;;5127885;27;20451;-37
2021/09/10 09:33:17;;;;;;;4.97;4.37;;;23.20;99.90;;;;;;5109762;27;20409;-37
2021/09/10 09:35:44;;;;;;;5.30;3.63;;;23.20;99.90;;;;;;5121376;27;20867;-37
2021/09/10 09:38:34;;;;;;;4.57;4.17;;;23.20;99.90;;;;;;5122870;27;20409;-37
2021/09/10 09:41:03;;;;;;;6.03;4.00;;;23.20;99.90;;;;;;5115614;27;20518;-37
2021/09/10 09:43:31;;;;;;;3.53;3.23;;;23.20;99.90;;;;;;5127486;27;20497;-37
2021/09/10 09:45:57;;;;;;;4.80;3.77;;;23.30;99.90;;;;;;5128273;27;20511;-37
2021/09/10 09:48:27;;;;;;;4.00;3.60;;;23.30;99.90;;;;;;5128006;27;20444;-37
2021/09/10 09:50:56;;;;;;;3.83;3.53;;;23.40;99.90;;;;;;5121715;27;20460;-38
2021/09/10 09:53:22;;;;;;;5.40;4.00;;;23.50;99.90;;;;;;5125314;27;20422;-37
2021/09/10 09:55:49;;;;;;;4.57;4.10;;;23.50;99.90;;;;;;5127232;27;20793;-37
2021/09/10 09:58:15;;;;;;;5.50;3.90;;;23.60;99.90;;;;;;5127659;27;20423;-37
2021/09/10 10:00:43;;;;;;;5.27;4.17;;;23.80;99.90;;;;;;5128121;27;21048;-37
2021/09/10 10:03:09;;;;;;;4.77;4.37;;;23.80;99.90;;;;;;5088458;28;20539;-37
2021/09/10 10:05:48;;;;;;;4.63;4.23;;;23.90;99.90;;;;;;5114822;27;20437;-37
2021/09/10 10:08:20;;;;;;;4.27;3.83;;;24.00;99.90;;;;;;5122615;27;20277;-37
2021/09/10 10:10:50;;;;;;;4.50;4.10;;;24.00;99.90;;;;;;5124623;27;20463;-38
2021/09/10 10:13:35;;;;;;;4.87;4.47;;;24.00;99.90;;;;;;5127172;27;20477;-37
2021/09/10 10:16:01;;;;;;;4.67;4.27;;;24.00;99.90;;;;;;5125585;27;20411;-37
2021/09/10 10:18:43;;;;;;;4.60;3.90;;;24.00;99.90;;;;;;5127743;27;20900;-37
2021/09/10 10:21:10;;;;;;;5.93;4.33;;;24.00;99.90;;;;;;5119646;27;20867;-37
2021/09/10 10:23:42;;;;;;;4.20;3.80;;;23.90;99.90;;;;;;5124537;27;20451;-37
2021/09/10 10:26:16;;;;;;;4.53;4.10;;;23.90;99.90;;;;;;5121382;27;20974;-37
2021/09/10 10:28:50;;;;;;;5.43;4.47;;;23.80;99.90;;;;;;5127327;27;20538;-37
2021/09/10 10:31:17;;;;;;;4.67;4.27;;;23.80;99.90;;;;;;5127322;27;20624;-37
2021/09/10 10:33:48;;;;;;;5.27;4.50;;;23.80;99.90;;;;;;5126675;27;20452;-37
2021/09/10 10:36:37;;;;;;;5.20;4.80;;;23.80;99.90;;;;;;5117950;27;20594;-37
2021/09/10 10:39:13;;;;;;;5.70;5.20;;;23.70;99.90;;;;;;5120514;27;20413;-36
2021/09/10 10:41:56;;;;;;;5.40;5.00;;;23.70;99.90;;;;;;5126975;27;20431;-37
2021/09/10 10:44:34;;;;;;;5.17;4.83;;;23.70;99.90;;;;;;5127266;27;20413;-37
2021/09/10 10:47:11;;;;;;;5.60;5.20;;;23.70;99.90;;;;;;5126951;27;20404;-36
2021/09/10 10:49:42;;;;;;;5.80;5.20;;;23.60;99.90;;;;;;5126751;27;20459;-37
2021/09/10 10:52:37;;;;;;;5.97;5.10;;;23.50;99.90;;;;;;5115634;27;20491;-37
2021/09/10 10:55:30;;;;;;;4.93;4.50;;;23.50;99.90;;;;;;5123482;27;20442;-36
2021/09/10 10:58:18;;;;;;;6.03;5.17;;;23.50;99.90;;;;;;5108298;27;20919;-37
2021/09/10 11:00:46;;;;;;;5.40;4.90;;;23.50;99.90;;;;;;5126652;27;20416;-37
2021/09/10 11:03:14;;;;;;;4.93;4.53;;;23.40;99.90;;;;;;5126484;27;20457;-37
2021/09/10 11:05:44;;;;;;;5.10;4.70;;;23.40;99.90;;;;;;5125882;27;20416;-37
2021/09/10 11:08:11;;;;;;;4.43;4.13;;;23.50;99.90;;;;;;5120552;27;20440;-37
2021/09/10 11:10:37;;;;;;;5.30;4.10;;;23.50;99.90;;;;;;5127945;27;20520;-37
2021/09/10 11:13:03;;;;;;;4.83;3.93;;;23.50;99.90;;;;;;5120687;27;20907;-37
2021/09/10 11:15:34;;;;;;;5.67;4.23;;;23.50;99.90;;;;;;5127235;27;20554;-37
2021/09/10 11:18:09;;;;;;;5.00;4.03;;;23.50;99.90;;;;;;5123799;28;20408;-37
2021/09/10 11:20:36;;;;;;;5.37;3.80;;;23.50;99.90;;;;;;5124100;28;20419;-37
2021/09/10 11:23:11;;;;;;;3.93;3.53;;;23.50;99.90;;;;;;5120520;28;20428;-37
2021/09/10 11:25:49;;;;;;;4.20;3.80;;;23.50;99.90;;;;;;5125763;28;20873;-37
2021/09/10 11:28:16;;;;;;;4.20;3.80;;;23.50;99.90;;;;;;5126151;28;20474;-37
2021/09/10 11:30:43;;;;;;;6.63;4.47;;;23.50;99.90;;;;;;5126483;28;20456;-38
2021/09/10 11:33:09;;;;;;;4.87;4.33;;;23.50;99.90;;;;;;5125407;28;20413;-37
2021/09/10 11:35:36;;;;;;;6.70;5.50;;;23.50;99.90;;;;;;5109075;28;20770;-42
2021/09/10 11:38:12;;;;;;;5.50;4.80;;;23.40;99.90;;;;;;5104861;28;20540;-37
2021/09/10 11:40:53;;;;;;;6.93;5.50;;;23.40;99.90;;;;;;5107859;28;20416;-38
2021/09/10 11:43:20;;;;;;;5.97;5.47;;;23.40;99.90;;;;;;5124820;28;20929;-37
2021/09/10 11:45:56;;;;;;;5.53;5.00;;;23.30;99.90;;;;;;5125262;28;20756;-37
2021/09/10 11:48:31;;;;;;;5.63;5.17;;;23.30;99.90;;;;;;5125019;28;20411;-37
2021/09/10 11:51:08;;;;;;;6.27;5.67;;;23.10;99.90;;;;;;5090479;28;20471;-38
2021/09/10 11:53:59;;;;;;;5.43;5.03;;;23.00;99.90;;;;;;5124257;28;20590;-37
2021/09/10 11:56:32;;;;;;;6.27;5.70;;;23.00;99.90;;;;;;5125181;28;20412;-37
2021/09/10 11:58:58;;;;;;;6.17;5.67;;;22.90;99.90;;;;;;5127020;28;20535;-37
2021/09/10 12:01:30;;;;;;;6.70;6.10;;;22.80;99.90;;;;;;5126837;28;20423;-37
2021/09/10 12:04:02;;;;;;;7.20;5.90;;;22.80;99.90;;;;;;5127831;28;20435;-37
2021/09/10 12:06:46;;;;;;;7.03;6.47;;;22.70;99.90;;;;;;5123564;28;20426;-37
2021/09/10 12:09:27;;;;;;;7.50;6.90;;;22.60;99.90;;;;;;5122937;28;20417;-37
2021/09/10 12:12:07;;;;;;;7.77;7.00;;;22.60;99.90;;;;;;5120863;28;20459;-37
2021/09/10 12:15:01;;;;;;;7.60;6.90;;;22.50;99.90;;;;;;5121641;28;20441;-37
2021/09/10 12:17:34;;;;;;;7.50;6.90;;;22.50;99.90;;;;;;5113561;27;20943;-36
2021/09/10 12:20:28;;;;;;;8.07;7.30;;;22.40;99.90;;;;;;5130011;27;20419;-37
2021/09/10 12:23:00;;;;;;;8.27;7.53;;;22.50;99.90;;;;;;5121642;27;20511;-38
2021/09/10 12:25:30;;;;;;;7.60;7.00;;;22.40;99.90;;;;;;5129763;27;20440;-38
2021/09/10 12:28:08;;;;;;;8.80;8.10;;;22.40;99.90;;;;;;5129060;27;20408;-38
2021/09/10 12:30:54;;;;;;;6.87;6.27;;;22.40;99.90;;;;;;5129746;27;20850;-37
2021/09/10 12:33:22;;;;;;;6.13;5.53;;;22.40;99.90;;;;;;5129213;27;20416;-37
2021/09/10 12:35:51;;;;;;;5.33;4.90;;;22.40;99.90;;;;;;5129439;27;20431;-37
2021/09/10 12:38:19;;;;;;;5.80;5.30;;;22.40;99.90;;;;;;5102858;27;20425;-37
2021/09/10 12:40:53;;;;;;;5.13;4.73;;;22.40;99.90;;;;;;5123340;27;20425;-36
2021/09/10 12:43:23;;;;;;;5.17;4.67;;;22.50;99.90;;;;;;5129255;27;20420;-37
2021/09/10 12:45:49;;;;;;;6.07;4.20;;;22.50;99.90;;;;;;5129100;27;20431;-37